createdAt,value
2023-01-26T00:01:22.907Z,80.53
2023-01-26T00:03:50.563Z,84.27
2023-01-26T00:06:19.134Z,84.43
2023-01-26T00:08:48.063Z,77.27
2023-01-26T00:11:19.256Z,76.43
2023-01-26T00:13:46.099Z,71.83
2023-01-26T00:16:15.136Z,78.40
2023-01-26T00:18:42.447Z,70.37
2023-01-26T00:21:13.111Z,66.70
2023-01-26T00:23:39.732Z,70.40
2023-01-26T00:26:10.058Z,67.00
2023-01-26T00:28:36.620Z,65.93
2023-01-26T00:31:08.525Z,64.37
2023-01-26T00:33:35.520Z,67.13
2023-01-26T00:36:02.033Z,71.50
2023-01-26T00:38:28.819Z,66.47
2023-01-26T00:40:55.780Z,70.90
2023-01-26T00:43:22.447Z,70.20
2023-01-26T00:45:49.290Z,66.00
2023-01-26T00:48:17.870Z,71.73
2023-01-26T00:50:44.423Z,66.27
2023-01-26T00:53:11.134Z,67.30
2023-01-26T00:55:37.970Z,65.63
2023-01-26T00:58:06.218Z,71.43
2023-01-26T01:00:34.145Z,74.67
2023-01-26T01:03:01.320Z,71.70
2023-01-26T01:05:29.849Z,68.53
2023-01-26T01:07:56.886Z,77.17
2023-01-26T01:10:24.185Z,73.90
2023-01-26T01:12:50.969Z,74.23
2023-01-26T01:15:17.797Z,75.90
2023-01-26T01:17:44.493Z,72.43
2023-01-26T01:20:12.178Z,75.50
2023-01-26T01:22:39.126Z,78.43
2023-01-26T01:25:06.282Z,72.10
2023-01-26T01:27:32.924Z,78.13
2023-01-26T01:29:59.438Z,77.13
2023-01-26T01:32:26.090Z,85.33
2023-01-26T01:34:52.773Z,74.67
2023-01-26T01:37:19.387Z,74.27
2023-01-26T01:39:45.902Z,83.13
2023-01-26T01:42:12.641Z,76.70
2023-01-26T01:44:39.481Z,73.40
2023-01-26T01:47:21.703Z,78.83
2023-01-26T01:49:50.994Z,78.20
2023-01-26T01:52:26.322Z,81.50
2023-01-26T01:54:55.982Z,78.83
2023-01-26T01:57:28.875Z,71.50
2023-01-26T02:00:04.961Z,73.03
2023-01-26T02:02:32.036Z,78.33
2023-01-26T02:05:04.423Z,73.27
2023-01-26T02:07:32.870Z,73.97
2023-01-26T02:10:18.134Z,76.97
2023-01-26T02:12:45.752Z,70.70
2023-01-26T02:15:12.456Z,69.63
2023-01-26T02:17:40.447Z,70.03
2023-01-26T02:20:10.476Z,69.67
2023-01-26T02:23:02.168Z,68.90
2023-01-26T02:26:00.768Z,74.93
2023-01-26T02:28:30.825Z,77.47
2023-01-26T02:30:57.728Z,76.40
2023-01-26T02:33:29.449Z,75.70
2023-01-26T02:35:56.215Z,78.37
2023-01-26T02:38:23.939Z,72.23
2023-01-26T02:40:58.425Z,74.03
2023-01-26T02:43:26.891Z,78.40
2023-01-26T02:45:54.011Z,74.83
2023-01-26T02:48:39.762Z,81.47
2023-01-26T02:51:06.694Z,75.50
2023-01-26T02:53:33.366Z,75.80
2023-01-26T02:56:00.030Z,76.10
2023-01-26T02:58:27.949Z,76.37
2023-01-26T03:00:54.718Z,76.77
2023-01-26T03:03:41.519Z,81.47
2023-01-26T03:06:10.350Z,81.87
2023-01-26T03:08:40.359Z,73.87
2023-01-26T03:11:08.731Z,73.50
2023-01-26T03:13:35.932Z,78.50
2023-01-26T03:16:07.153Z,73.53
2023-01-26T03:18:54.015Z,73.53
2023-01-26T03:21:39.944Z,72.50
2023-01-26T03:24:30.005Z,77.47
2023-01-26T03:27:15.379Z,73.33
2023-01-26T03:29:41.998Z,71.20
2023-01-26T03:32:08.835Z,68.00
2023-01-26T03:34:35.595Z,74.30
2023-01-26T03:37:02.395Z,71.73
2023-01-26T03:39:47.312Z,72.80
2023-01-26T03:42:32.125Z,70.07
2023-01-26T03:45:17.585Z,70.33
2023-01-26T03:48:02.780Z,71.93
2023-01-26T03:50:47.785Z,68.80
2023-01-26T03:53:38.413Z,77.93
2023-01-26T03:56:18.390Z,76.53
2023-01-26T03:58:46.121Z,79.93
2023-01-26T04:01:20.048Z,75.00
2023-01-26T04:04:09.343Z,75.07
2023-01-26T04:06:56.308Z,79.87
2023-01-26T04:09:23.194Z,71.20
2023-01-26T04:11:49.963Z,73.70
2023-01-26T04:14:42.369Z,73.63
2023-01-26T04:17:36.852Z,72.80
2023-01-26T04:20:25.087Z,80.03
2023-01-26T04:22:52.101Z,71.37
2023-01-26T04:25:20.113Z,77.13
2023-01-26T04:27:46.851Z,77.90
2023-01-26T04:30:15.227Z,75.17
2023-01-26T04:32:41.968Z,74.70
2023-01-26T04:35:09.789Z,82.33
2023-01-26T04:37:36.679Z,82.17
2023-01-26T04:40:04.418Z,80.27
2023-01-26T04:42:31.009Z,80.83
2023-01-26T04:44:57.899Z,83.90
2023-01-26T04:47:24.519Z,77.23
2023-01-26T04:49:51.188Z,82.07
2023-01-26T04:52:17.727Z,89.50
2023-01-26T04:54:44.346Z,85.03
2023-01-26T04:57:11.511Z,83.17
2023-01-26T04:59:38.255Z,82.47
2023-01-26T05:02:05.044Z,87.00
2023-01-26T05:04:32.021Z,85.57
2023-01-26T05:06:58.654Z,92.47
2023-01-26T05:09:25.243Z,88.70
2023-01-26T05:11:52.012Z,85.73
2023-01-26T05:14:18.584Z,90.27
2023-01-26T05:16:45.361Z,98.33
2023-01-26T05:19:11.960Z,94.07
2023-01-26T05:21:38.577Z,103.20
2023-01-26T05:24:05.540Z,92.43
2023-01-26T05:26:32.182Z,97.10
2023-01-26T05:28:58.673Z,98.97
2023-01-26T05:31:25.389Z,104.47
2023-01-26T05:33:52.000Z,100.60
2023-01-26T05:36:18.619Z,102.67
2023-01-26T05:38:45.200Z,99.63
2023-01-26T05:41:11.864Z,100.00
2023-01-26T05:43:38.451Z,105.10
2023-01-26T05:46:05.597Z,97.63
2023-01-26T05:48:32.226Z,95.37
2023-01-26T05:50:58.957Z,85.70
2023-01-26T05:53:25.969Z,83.07
2023-01-26T05:55:52.673Z,74.90
2023-01-26T05:58:19.585Z,81.77
2023-01-26T06:00:46.362Z,83.13
2023-01-26T06:03:12.989Z,85.60
2023-01-26T06:05:39.743Z,83.17
2023-01-26T06:08:06.299Z,88.13
2023-01-26T06:10:32.877Z,94.27
2023-01-26T06:13:03.239Z,82.77
2023-01-26T06:15:30.064Z,78.67
2023-01-26T06:17:56.637Z,83.57
2023-01-26T06:20:23.232Z,73.97
2023-01-26T06:22:49.980Z,76.20
2023-01-26T06:25:16.681Z,77.77
2023-01-26T06:27:45.963Z,79.63
2023-01-26T06:30:13.485Z,75.37
2023-01-26T06:32:40.221Z,68.13
2023-01-26T06:35:08.408Z,67.27
2023-01-26T06:37:35.347Z,69.77
2023-01-26T06:40:02.027Z,70.37
2023-01-26T06:42:28.626Z,71.90
2023-01-26T06:44:57.431Z,65.93
2023-01-26T06:47:24.085Z,62.90
2023-01-26T06:49:50.755Z,59.60
2023-01-26T06:52:34.894Z,58.03
2023-01-26T06:55:02.072Z,60.43
2023-01-26T06:57:28.738Z,59.70
2023-01-26T06:59:57.313Z,69.17
2023-01-26T07:02:23.889Z,72.33
2023-01-26T07:04:51.163Z,69.53
2023-01-26T07:07:17.845Z,66.00
2023-01-26T07:09:44.509Z,60.93
2023-01-26T07:12:11.104Z,73.27
2023-01-26T07:14:37.775Z,65.43
2023-01-26T07:17:04.408Z,65.43
2023-01-26T07:19:33.294Z,56.67
2023-01-26T07:22:00.548Z,58.10
2023-01-26T07:24:27.422Z,58.23
2023-01-26T07:26:54.478Z,54.23
2023-01-26T07:29:21.311Z,57.90
2023-01-26T07:31:48.100Z,58.47
2023-01-26T07:34:14.781Z,56.20
2023-01-26T07:36:41.361Z,55.90
2023-01-26T07:39:08.771Z,53.07
2023-01-26T07:41:35.760Z,55.83
2023-01-26T07:44:02.525Z,56.47
2023-01-26T07:46:29.326Z,49.60
2023-01-26T07:48:56.283Z,53.03
2023-01-26T07:51:23.600Z,57.00
2023-01-26T07:53:50.368Z,68.90
2023-01-26T07:56:20.605Z,58.97
2023-01-26T07:58:51.759Z,56.07
2023-01-26T08:01:18.800Z,56.60
2023-01-26T08:03:46.006Z,54.40
2023-01-26T08:06:14.485Z,55.33
2023-01-26T08:08:42.260Z,56.97
2023-01-26T08:11:09.490Z,53.80
2023-01-26T08:13:36.409Z,60.07
2023-01-26T08:16:13.553Z,55.53
2023-01-26T08:18:45.682Z,55.67
2023-01-26T08:21:14.057Z,59.57
2023-01-26T08:23:40.611Z,59.20
2023-01-26T08:26:11.069Z,58.20
2023-01-26T08:28:38.102Z,58.77
2023-01-26T08:31:11.748Z,59.73
2023-01-26T08:33:39.854Z,54.20
2023-01-26T08:36:08.879Z,53.83
2023-01-26T08:38:35.627Z,54.23
2023-01-26T08:41:03.293Z,56.13
2023-01-26T08:43:30.552Z,56.93
2023-01-26T08:45:57.600Z,56.53
2023-01-26T08:48:24.279Z,56.23
2023-01-26T08:50:54.602Z,58.73
2023-01-26T08:53:21.618Z,59.83
2023-01-26T08:55:48.213Z,58.00
2023-01-26T08:58:14.845Z,87.97
2023-01-26T09:00:41.387Z,65.87
2023-01-26T09:03:08.429Z,61.00
2023-01-26T09:05:37.446Z,60.83
2023-01-26T09:08:05.250Z,63.97
2023-01-26T09:10:32.232Z,62.37
2023-01-26T09:13:00.865Z,64.27
2023-01-26T09:15:28.141Z,62.70
2023-01-26T09:17:54.800Z,61.97
2023-01-26T09:20:21.715Z,65.17
2023-01-26T09:22:48.546Z,58.67
2023-01-26T09:25:15.816Z,65.40
2023-01-26T09:27:42.518Z,62.43
2023-01-26T09:30:09.890Z,64.93
2023-01-26T09:32:36.533Z,60.63
2023-01-26T09:35:03.264Z,68.17
2023-01-26T09:37:29.896Z,62.90
2023-01-26T09:39:56.553Z,64.63
2023-01-26T09:42:40.401Z,57.40
2023-01-26T09:45:13.646Z,57.17
2023-01-26T09:47:55.757Z,59.67
2023-01-26T09:50:27.789Z,52.77
2023-01-26T09:52:57.702Z,61.10
2023-01-26T09:55:25.985Z,61.17
2023-01-26T09:57:55.504Z,57.23
2023-01-26T10:00:26.730Z,54.63
2023-01-26T10:03:05.268Z,55.33
2023-01-26T10:06:09.394Z,49.33
2023-01-26T10:08:36.103Z,49.97
2023-01-26T10:11:07.936Z,53.63
2023-01-26T10:13:34.584Z,46.40
2023-01-26T10:16:04.900Z,49.83
2023-01-26T10:18:40.289Z,42.07
2023-01-26T10:21:07.752Z,45.67
2023-01-26T10:23:35.447Z,42.87
2023-01-26T10:26:13.467Z,44.27
2023-01-26T10:28:41.925Z,38.47
2023-01-26T10:31:35.160Z,45.17
2023-01-26T10:34:15.214Z,39.63
2023-01-26T10:36:43.647Z,35.10
2023-01-26T10:39:15.413Z,58.77
2023-01-26T10:42:02.140Z,38.73
2023-01-26T10:44:36.457Z,36.60
2023-01-26T10:47:13.844Z,41.03
2023-01-26T10:49:40.503Z,39.03
2023-01-26T10:52:25.571Z,37.00
2023-01-26T10:55:13.457Z,41.67
2023-01-26T10:57:41.522Z,38.63
2023-01-26T11:00:29.107Z,40.10
2023-01-26T11:03:04.784Z,34.53
2023-01-26T11:05:31.596Z,37.83
2023-01-26T11:08:03.179Z,36.17
2023-01-26T11:10:31.764Z,40.73
2023-01-26T11:13:07.826Z,35.37
2023-01-26T11:15:39.867Z,38.27
2023-01-26T11:18:44.550Z,32.50
2023-01-26T11:21:17.340Z,40.20
2023-01-26T11:23:58.903Z,33.77
2023-01-26T11:26:37.257Z,34.00
2023-01-26T11:29:09.907Z,32.00
2023-01-26T11:31:39.127Z,35.50
2023-01-26T11:34:13.817Z,33.70
2023-01-26T11:36:49.390Z,32.33
2023-01-26T11:39:40.112Z,30.73
2023-01-26T11:42:23.255Z,31.00
2023-01-26T11:45:08.128Z,25.23
2023-01-26T11:47:53.844Z,25.43
2023-01-26T11:50:23.318Z,25.50
2023-01-26T11:53:27.791Z,22.37
2023-01-26T11:56:03.408Z,23.13
2023-01-26T11:58:50.404Z,22.77
2023-01-26T12:01:25.881Z,24.40
2023-01-26T12:03:52.686Z,25.87
2023-01-26T12:06:31.553Z,26.50
2023-01-26T12:09:11.834Z,32.57
2023-01-26T12:11:49.104Z,24.57
2023-01-26T12:14:24.561Z,20.00
2023-01-26T12:17:18.699Z,19.63
2023-01-26T12:20:04.654Z,20.43
2023-01-26T12:22:40.875Z,21.97
2023-01-26T12:25:29.249Z,19.43
2023-01-26T12:28:07.378Z,17.83
2023-01-26T12:30:55.479Z,21.80
2023-01-26T12:33:22.347Z,18.73
2023-01-26T12:36:04.286Z,18.47
2023-01-26T12:38:43.703Z,16.23
2023-01-26T12:41:22.547Z,23.13
2023-01-26T12:44:10.415Z,17.93
2023-01-26T12:46:42.667Z,19.20
2023-01-26T12:49:26.743Z,17.17
2023-01-26T12:52:10.948Z,16.80
2023-01-26T12:54:43.359Z,14.97
2023-01-26T12:57:15.309Z,15.27
2023-01-26T12:59:47.897Z,14.67
2023-01-26T13:02:32.480Z,16.23
2023-01-26T13:05:00.971Z,12.97
2023-01-26T13:07:54.515Z,19.80
2023-01-26T13:10:26.223Z,14.47
2023-01-26T13:13:01.447Z,22.53
2023-01-26T13:15:30.427Z,15.27
2023-01-26T13:17:59.703Z,15.83
2023-01-26T13:20:43.352Z,12.47
2023-01-26T13:23:40.066Z,12.93
2023-01-26T13:26:18.196Z,11.40
2023-01-26T13:28:46.193Z,13.83
2023-01-26T13:31:13.244Z,12.30
2023-01-26T13:33:41.321Z,9.37
2023-01-26T13:36:17.210Z,14.70
2023-01-26T13:38:47.998Z,10.23
2023-01-26T13:41:19.692Z,11.40
2023-01-26T13:44:09.110Z,10.33
2023-01-26T13:47:34.396Z,11.90
2023-01-26T13:50:01.032Z,20.03
2023-01-26T13:52:28.553Z,12.37
2023-01-26T13:55:00.411Z,12.80
2023-01-26T13:57:30.059Z,14.53
2023-01-26T14:00:01.821Z,19.70
2023-01-26T14:02:36.726Z,14.43
2023-01-26T14:05:03.855Z,16.93
2023-01-26T14:07:37.578Z,18.07
2023-01-26T14:10:05.246Z,16.30
2023-01-26T14:12:36.722Z,17.40
2023-01-26T14:15:07.690Z,17.57
2023-01-26T14:17:37.922Z,22.47
2023-01-26T14:20:21.572Z,20.67
2023-01-26T14:23:13.816Z,24.50
2023-01-26T14:25:42.095Z,24.07
2023-01-26T14:28:16.966Z,23.70
2023-01-26T14:30:44.115Z,21.47
2023-01-26T14:33:16.778Z,26.03
2023-01-26T14:35:58.132Z,24.30
2023-01-26T14:38:28.125Z,22.67
2023-01-26T14:41:00.002Z,25.53
2023-01-26T14:43:30.088Z,24.77
2023-01-26T14:46:03.373Z,24.17
2023-01-26T14:48:36.386Z,26.63
2023-01-26T14:51:05.145Z,28.27
2023-01-26T14:53:31.804Z,23.53
2023-01-26T14:55:58.626Z,30.30
2023-01-26T14:58:28.602Z,27.83
2023-01-26T15:00:58.636Z,28.43
2023-01-26T15:03:32.455Z,37.40
2023-01-26T15:06:15.289Z,27.13
2023-01-26T15:08:53.871Z,31.00
2023-01-26T15:11:56.564Z,27.87
2023-01-26T15:14:46.741Z,27.23
2023-01-26T15:17:38.988Z,33.40
2023-01-26T15:20:25.864Z,34.27
2023-01-26T15:22:53.608Z,34.60
2023-01-26T15:25:28.406Z,37.07
2023-01-26T15:27:58.784Z,29.80
2023-01-26T15:30:34.764Z,35.37
2023-01-26T15:33:02.354Z,36.17
2023-01-26T15:35:32.804Z,40.10
2023-01-26T15:38:03.672Z,30.60
2023-01-26T15:40:30.936Z,26.33
2023-01-26T15:43:19.031Z,37.63
2023-01-26T15:45:54.911Z,42.83
2023-01-26T15:48:22.905Z,39.20
2023-01-26T15:50:50.027Z,39.67
2023-01-26T15:53:23.062Z,36.77
2023-01-26T15:55:52.987Z,39.10
2023-01-26T15:58:23.175Z,31.40
2023-01-26T16:00:50.923Z,35.53
2023-01-26T16:03:20.452Z,34.33
2023-01-26T16:05:48.098Z,37.70
2023-01-26T16:08:19.209Z,30.57
2023-01-26T16:10:47.056Z,35.33
2023-01-26T16:13:18.123Z,34.37
2023-01-26T16:15:50.977Z,30.53
2023-01-26T16:18:19.585Z,35.03
2023-01-26T16:20:48.417Z,37.57
2023-01-26T16:23:23.600Z,28.90
2023-01-26T16:25:50.925Z,35.37
2023-01-26T16:28:18.008Z,44.67
2023-01-26T16:30:46.517Z,33.17
2023-01-26T16:33:18.273Z,37.77
2023-01-26T16:35:45.130Z,37.33
2023-01-26T16:38:14.624Z,47.13
2023-01-26T16:40:43.919Z,44.20
2023-01-26T16:43:23.526Z,54.80
2023-01-26T16:45:50.794Z,41.23
2023-01-26T16:48:17.515Z,50.63
2023-01-26T16:50:45.139Z,51.27
2023-01-26T16:53:23.328Z,48.97
2023-01-26T16:55:50.024Z,50.37
2023-01-26T16:58:16.728Z,56.43
2023-01-26T17:00:43.835Z,45.40
2023-01-26T17:03:13.240Z,51.00
2023-01-26T17:05:40.898Z,59.83
2023-01-26T17:08:07.793Z,63.13
2023-01-26T17:10:34.537Z,57.97
2023-01-26T17:13:01.464Z,53.00
2023-01-26T17:15:29.261Z,60.07
2023-01-26T17:17:56.367Z,56.33
2023-01-26T17:20:23.313Z,56.83
2023-01-26T17:22:49.971Z,58.00
2023-01-26T17:25:18.262Z,53.67
2023-01-26T17:27:46.389Z,47.60
2023-01-26T17:30:13.630Z,60.40
2023-01-26T17:32:42.155Z,55.37
2023-01-26T17:35:09.313Z,55.30
2023-01-26T17:37:37.588Z,51.20
2023-01-26T17:40:05.506Z,46.77
2023-01-26T17:42:35.208Z,51.63
2023-01-26T17:45:02.695Z,54.70
2023-01-26T17:47:32.804Z,58.60
2023-01-26T17:50:00.147Z,45.47
2023-01-26T17:52:27.056Z,49.20
2023-01-26T17:54:54.215Z,50.53
2023-01-26T17:57:21.027Z,51.00
2023-01-26T17:59:47.606Z,41.70
2023-01-26T18:02:14.467Z,54.57
2023-01-26T18:04:41.396Z,50.30
2023-01-26T18:07:08.017Z,46.37
2023-01-26T18:09:34.570Z,43.83
2023-01-26T18:12:01.519Z,56.10
2023-01-26T18:14:28.252Z,78.37
2023-01-26T18:16:55.356Z,67.43
2023-01-26T18:19:22.610Z,81.47
2023-01-26T18:21:51.126Z,71.20
2023-01-26T18:24:18.057Z,79.87
2023-01-26T18:26:45.040Z,68.87
2023-01-26T18:29:12.062Z,65.43
2023-01-26T18:31:42.382Z,63.30
2023-01-26T18:34:11.176Z,71.73
2023-01-26T18:36:37.822Z,67.57
2023-01-26T18:39:06.835Z,76.13
2023-01-26T18:41:34.017Z,67.27
2023-01-26T18:44:03.066Z,58.00
2023-01-26T18:46:31.747Z,54.20
2023-01-26T18:49:03.177Z,56.20
2023-01-26T18:51:35.997Z,63.20
2023-01-26T18:54:04.323Z,69.97
2023-01-26T18:56:31.414Z,84.23
2023-01-26T18:58:58.805Z,57.37
2023-01-26T19:01:26.317Z,62.97
2023-01-26T19:03:56.819Z,64.40
2023-01-26T19:06:25.253Z,57.83
2023-01-26T19:09:00.841Z,63.87
2023-01-26T19:11:31.001Z,66.13
2023-01-26T19:13:58.332Z,63.70
2023-01-26T19:16:29.266Z,64.30
2023-01-26T19:18:56.455Z,69.90
2023-01-26T19:21:24.814Z,64.60
2023-01-26T19:23:52.903Z,62.03
2023-01-26T19:26:22.188Z,72.23
2023-01-26T19:28:51.161Z,63.30
2023-01-26T19:31:21.578Z,57.50
2023-01-26T19:33:53.380Z,66.73
2023-01-26T19:36:20.594Z,58.53
2023-01-26T19:38:47.274Z,65.73
2023-01-26T19:41:14.043Z,63.17
2023-01-26T19:43:41.019Z,60.83
2023-01-26T19:46:09.492Z,76.17
2023-01-26T19:48:36.473Z,71.23
2023-01-26T19:51:06.401Z,72.63
2023-01-26T19:53:34.752Z,73.63
2023-01-26T19:56:13.363Z,86.63
2023-01-26T19:58:40.208Z,63.13
2023-01-26T20:01:09.394Z,79.43
2023-01-26T20:03:36.418Z,68.87
2023-01-26T20:06:05.273Z,80.57
2023-01-26T20:08:34.917Z,68.60
2023-01-26T20:11:06.058Z,66.10
2023-01-26T20:13:33.939Z,78.57
2023-01-26T20:16:01.591Z,71.57
2023-01-26T20:18:28.203Z,71.80
2023-01-26T20:21:00.711Z,61.73
2023-01-26T20:23:27.844Z,64.20
2023-01-26T20:26:04.880Z,65.93
2023-01-26T20:28:31.643Z,65.73
2023-01-26T20:31:19.182Z,60.40
2023-01-26T20:33:49.805Z,57.67
2023-01-26T20:36:19.045Z,58.63
2023-01-26T20:38:47.034Z,57.67
2023-01-26T20:41:20.035Z,53.13
2023-01-26T20:43:59.021Z,49.93
2023-01-26T20:46:29.517Z,58.87
2023-01-26T20:48:56.932Z,49.90
2023-01-26T20:51:26.949Z,52.30
2023-01-26T20:53:53.897Z,52.63
2023-01-26T20:56:22.418Z,59.03
2023-01-26T20:58:55.979Z,55.23
2023-01-26T21:01:23.589Z,47.97
2023-01-26T21:03:50.290Z,47.87
2023-01-26T21:06:20.731Z,48.47
2023-01-26T21:08:48.720Z,59.67
2023-01-26T21:11:16.818Z,52.63
2023-01-26T21:13:44.136Z,45.40
2023-01-26T21:16:13.538Z,46.47
2023-01-26T21:18:41.602Z,45.67
2023-01-26T21:21:11.120Z,44.83
2023-01-26T21:23:40.471Z,54.50
2023-01-26T21:26:11.750Z,48.90
2023-01-26T21:28:39.396Z,42.93
2023-01-26T21:31:12.075Z,46.37
2023-01-26T21:33:41.147Z,41.83
2023-01-26T21:36:09.207Z,47.07
2023-01-26T21:38:39.389Z,37.07
2023-01-26T21:41:36.706Z,43.37
2023-01-26T21:44:07.826Z,41.33
2023-01-26T21:46:35.536Z,34.40
2023-01-26T21:49:07.321Z,43.03
2023-01-26T21:51:53.399Z,40.57
2023-01-26T21:54:20.202Z,41.43
2023-01-26T21:56:46.984Z,33.10
2023-01-26T21:59:15.678Z,30.80
2023-01-26T22:01:47.151Z,30.87
2023-01-26T22:04:16.732Z,31.13
2023-01-26T22:06:43.620Z,34.50
2023-01-26T22:09:12.900Z,31.27
2023-01-26T22:11:39.704Z,33.37
2023-01-26T22:14:07.512Z,21.67
2023-01-26T22:16:34.184Z,13.50
2023-01-26T22:19:04.112Z,13.83
2023-01-26T22:21:31.420Z,15.07
2023-01-26T22:23:58.097Z,11.30
2023-01-26T22:26:24.812Z,13.33
2023-01-26T22:28:56.199Z,13.47
2023-01-26T22:31:27.247Z,11.33
2023-01-26T22:33:55.180Z,10.83
2023-01-26T22:36:22.457Z,14.23
2023-01-26T22:38:50.497Z,13.43
2023-01-26T22:41:22.551Z,11.13
2023-01-26T22:43:50.645Z,13.27
2023-01-26T22:46:19.687Z,13.23
2023-01-26T22:48:46.435Z,15.67
2023-01-26T22:51:18.385Z,12.17
2023-01-26T22:53:45.227Z,13.17
2023-01-26T22:56:12.218Z,10.17
2023-01-26T22:58:47.816Z,12.23
2023-01-26T23:01:23.853Z,15.63
2023-01-26T23:03:52.358Z,14.33
2023-01-26T23:06:19.095Z,12.77
2023-01-26T23:08:45.766Z,16.03
2023-01-26T23:11:13.539Z,12.60
2023-01-26T23:13:42.315Z,18.27
2023-01-26T23:16:09.732Z,14.93
2023-01-26T23:18:37.041Z,17.20
2023-01-26T23:21:04.690Z,10.47
2023-01-26T23:23:31.676Z,16.23
2023-01-26T23:25:59.439Z,11.47
2023-01-26T23:28:28.351Z,14.50
2023-01-26T23:30:56.374Z,15.90
2023-01-26T23:33:24.473Z,13.70
2023-01-26T23:35:51.766Z,17.13
2023-01-26T23:38:19.645Z,16.13
2023-01-26T23:40:48.717Z,18.87
2023-01-26T23:43:17.351Z,19.67
2023-01-26T23:45:45.257Z,16.43
2023-01-26T23:48:12.432Z,16.80
2023-01-26T23:50:39.491Z,13.87
2023-01-26T23:53:06.289Z,16.43
2023-01-26T23:55:32.837Z,17.33
2023-01-26T23:57:59.562Z,15.17
